KODO

Odessa-Schlemeyer Field Airport

Odessa, Texas, USA
METAR KODO 110153Z AUTO 21005KT CLR 04/02 A3032 RMK AO2 SLP271 T00390022
Observed Flight Rules
Dec-11 @ 01:53 UTC (32 minutes ago)
Wind Clouds
210° at 5 knots
  • Clear skies
Temperatures Readings
Current 4°C / 39°F
Dewpoint 2°C / 36°F
Humidity 87%
Altimeter 30.32" Hg
Pressure 1027.1 hPa
Elevation 902
METAR KODO 110153Z AUTO 21005KT CLR 04/02 A3032 RMK AO2 SLP271 T00390022
Observed Flight Rules
Dec-11 @ 01:53 UTC
(32 minutes ago)
Wind
210° at 5 knots
Clouds
  • Clear skies
Temperature Dewpoint
4°C / 39°F 2°C / 36°F
Humidity Altimeter Pressure
87% 30.32" Hg 1027.1 hPa